createdAt,value
2019-03-20T00:00:14.887Z,2.77
2019-03-20T00:02:44.613Z,3.30
2019-03-20T00:05:14.259Z,3.30
2019-03-20T00:07:43.928Z,3.07
2019-03-20T00:10:13.801Z,3.50
2019-03-20T00:12:43.408Z,3.03
2019-03-20T00:15:13.434Z,3.17
2019-03-20T00:17:43.120Z,3.43
2019-03-20T00:20:12.912Z,3.00
2019-03-20T00:22:43.296Z,3.20
2019-03-20T00:25:13.327Z,3.20
2019-03-20T00:27:42.946Z,3.80
2019-03-20T00:30:13.382Z,3.50
2019-03-20T00:32:43.024Z,3.13
2019-03-20T00:35:12.932Z,3.30
2019-03-20T00:37:42.587Z,3.10
2019-03-20T00:40:13.044Z,3.30
2019-03-20T00:42:42.598Z,3.70
2019-03-20T00:45:13.061Z,3.33
2019-03-20T00:47:42.822Z,3.37
2019-03-20T00:50:14.465Z,3.70
2019-03-20T00:52:44.147Z,3.53
2019-03-20T00:55:14.009Z,3.23
2019-03-20T00:57:43.911Z,3.63
2019-03-20T01:00:16.265Z,3.53
2019-03-20T01:02:45.887Z,3.73
2019-03-20T01:05:16.609Z,4.07
2019-03-20T01:07:46.447Z,3.80
2019-03-20T01:10:18.120Z,3.53
2019-03-20T01:12:47.846Z,3.80
2019-03-20T01:15:17.715Z,4.10
2019-03-20T01:17:47.508Z,3.80
2019-03-20T01:20:17.928Z,4.93
2019-03-20T01:22:47.647Z,4.77
2019-03-20T01:25:17.788Z,3.80
2019-03-20T01:27:57.523Z,4.63
2019-03-20T01:34:16.352Z,3.20
2019-03-20T01:36:45.960Z,3.57
2019-03-20T01:39:15.590Z,2.83
2019-03-20T01:41:45.193Z,2.40
2019-03-20T01:44:14.769Z,2.50
2019-03-20T01:46:44.383Z,2.63
2019-03-20T01:49:13.989Z,2.77
2019-03-20T01:51:43.681Z,2.30
2019-03-20T01:54:13.241Z,2.10
2019-03-20T01:56:42.811Z,4.90
2019-03-20T01:59:12.421Z,2.73
2019-03-20T02:01:42.466Z,2.40
2019-03-20T02:04:12.074Z,2.67
2019-03-20T02:06:41.682Z,2.43
2019-03-20T02:09:11.395Z,2.47
2019-03-20T02:11:40.971Z,2.60
2019-03-20T02:14:10.548Z,3.63
2019-03-20T02:16:40.173Z,2.77
2019-03-20T02:19:09.786Z,3.10
2019-03-20T02:21:39.394Z,2.80
2019-03-20T02:24:09.002Z,3.33
2019-03-20T02:26:38.602Z,3.63
2019-03-20T02:29:08.349Z,3.83
2019-03-20T02:31:37.905Z,3.73
2019-03-20T02:34:07.493Z,4.07
2019-03-20T02:36:37.124Z,3.90
2019-03-20T02:39:08.419Z,3.40
2019-03-20T02:41:38.071Z,3.60
2019-03-20T02:44:07.660Z,6.10
2019-03-20T02:46:37.237Z,4.90
2019-03-20T02:49:06.850Z,4.07
2019-03-20T02:51:36.459Z,4.40
2019-03-20T02:54:06.188Z,5.07
2019-03-20T02:56:35.771Z,5.60
2019-03-20T02:59:05.444Z,5.37
2019-03-20T03:01:35.067Z,4.47
2019-03-20T03:04:04.821Z,4.77
2019-03-20T03:06:34.435Z,5.07
2019-03-20T03:09:04.780Z,5.10
2019-03-20T03:11:34.362Z,5.37
2019-03-20T03:14:03.936Z,5.67
2019-03-20T03:16:33.507Z,6.97
2019-03-20T03:19:03.122Z,7.80
2019-03-20T03:21:32.713Z,6.73
2019-03-20T03:24:02.284Z,6.20
2019-03-20T03:26:31.899Z,6.60
2019-03-20T03:29:01.522Z,5.77
2019-03-20T03:31:31.134Z,6.90
2019-03-20T03:34:00.681Z,5.87
2019-03-20T03:36:30.239Z,5.77
2019-03-20T03:38:59.806Z,4.70
2019-03-20T03:41:29.370Z,4.37
2019-03-20T03:43:59.015Z,4.53
2019-03-20T03:46:28.584Z,4.43
2019-03-20T03:48:58.164Z,7.40
2019-03-20T03:51:27.752Z,6.20
2019-03-20T03:53:57.341Z,6.00
2019-03-20T03:56:27.032Z,4.70
2019-03-20T03:58:56.601Z,6.03
2019-03-20T04:01:26.183Z,4.67
2019-03-20T04:03:55.910Z,4.30
2019-03-20T04:06:35.628Z,4.67
2019-03-20T04:08:56.841Z,4.23
2019-03-20T04:11:26.438Z,4.77
2019-03-20T04:13:56.046Z,4.17
2019-03-20T04:16:25.667Z,4.73
2019-03-20T04:18:55.227Z,5.77
2019-03-20T04:21:24.830Z,7.37
2019-03-20T04:23:54.403Z,6.30
2019-03-20T04:26:23.988Z,5.73
2019-03-20T04:28:53.591Z,4.60
2019-03-20T04:31:23.172Z,6.63
2019-03-20T04:33:52.803Z,4.77
2019-03-20T04:36:22.396Z,7.77
2019-03-20T04:38:51.977Z,4.50
2019-03-20T04:41:21.562Z,5.20
2019-03-20T04:43:51.133Z,4.77
2019-03-20T04:46:20.928Z,5.23
2019-03-20T04:48:50.514Z,5.27
2019-03-20T04:51:20.109Z,4.47
2019-03-20T04:53:49.693Z,4.87
2019-03-20T04:56:19.274Z,5.03
2019-03-20T04:58:48.878Z,6.43
2019-03-20T05:01:18.435Z,7.73
2019-03-20T05:03:48.012Z,5.47
2019-03-20T05:06:17.673Z,4.90
2019-03-20T05:08:47.243Z,7.30
2019-03-20T05:11:16.930Z,8.93
2019-03-20T05:13:46.511Z,9.47
2019-03-20T05:16:16.098Z,10.47
2019-03-20T05:18:45.676Z,10.73
2019-03-20T05:21:15.236Z,7.60
2019-03-20T05:23:44.880Z,8.17
2019-03-20T05:26:14.458Z,7.17
2019-03-20T05:28:44.037Z,6.60
2019-03-20T05:31:13.687Z,6.00
2019-03-20T05:33:43.313Z,5.23
2019-03-20T05:36:12.924Z,7.50
2019-03-20T05:38:42.507Z,5.93
2019-03-20T05:41:12.134Z,7.73
2019-03-20T05:43:41.738Z,5.83
2019-03-20T05:46:11.287Z,5.70
2019-03-20T05:48:40.881Z,6.33
2019-03-20T05:51:10.502Z,5.33
2019-03-20T05:53:40.121Z,5.90
2019-03-20T05:56:09.669Z,7.40
2019-03-20T05:58:39.236Z,8.10
2019-03-20T06:01:08.865Z,6.20
2019-03-20T06:03:38.448Z,6.07
2019-03-20T06:06:08.032Z,7.10
2019-03-20T06:08:37.645Z,10.27
2019-03-20T06:11:07.302Z,12.13
2019-03-20T06:13:36.936Z,11.57
2019-03-20T06:16:06.521Z,12.50
2019-03-20T06:18:36.108Z,15.60
2019-03-20T06:21:05.804Z,18.17
2019-03-20T06:23:35.393Z,13.53
2019-03-20T06:26:05.011Z,9.70
2019-03-20T06:28:34.643Z,8.87
2019-03-20T06:31:04.319Z,10.20
2019-03-20T06:33:33.927Z,10.07
2019-03-20T06:36:03.531Z,11.43
2019-03-20T06:38:33.115Z,12.43
2019-03-20T06:41:02.730Z,9.40
2019-03-20T06:43:32.303Z,9.90
2019-03-20T06:46:01.867Z,11.60
2019-03-20T06:48:31.457Z,9.63
2019-03-20T06:51:01.070Z,8.23
2019-03-20T06:53:30.663Z,8.40
2019-03-20T06:56:00.263Z,10.80
2019-03-20T06:58:29.844Z,9.73
2019-03-20T07:01:09.472Z,11.07
2019-03-20T07:04:05.811Z,11.10
2019-03-20T07:07:16.307Z,10.83
2019-03-20T07:10:47.982Z,10.80
2019-03-20T07:13:17.599Z,11.60
2019-03-20T07:15:47.312Z,13.30
2019-03-20T07:18:17.107Z,10.13
2019-03-20T07:20:46.711Z,10.00
2019-03-20T07:23:16.327Z,12.13
2019-03-20T07:25:45.921Z,9.70
2019-03-20T07:28:15.483Z,11.80
2019-03-20T07:30:45.115Z,10.00
2019-03-20T07:33:14.678Z,8.90
2019-03-20T07:35:44.281Z,8.10
2019-03-20T07:38:13.914Z,9.10
2019-03-20T07:40:43.598Z,7.17
2019-03-20T07:43:13.229Z,8.47
2019-03-20T07:45:42.834Z,7.40
2019-03-20T07:48:21.502Z,9.30
2019-03-20T07:50:43.739Z,7.97
2019-03-20T07:53:13.306Z,9.37
2019-03-20T07:55:42.887Z,8.07
2019-03-20T07:58:12.501Z,8.27
2019-03-20T08:00:42.071Z,10.83
2019-03-20T08:03:11.660Z,9.90
2019-03-20T08:05:41.227Z,8.60
2019-03-20T08:08:10.811Z,8.17
2019-03-20T08:10:40.470Z,9.53
2019-03-20T08:13:10.054Z,7.93
2019-03-20T08:15:39.623Z,10.47
2019-03-20T08:18:09.249Z,8.20
2019-03-20T08:20:38.836Z,12.40
2019-03-20T08:23:08.455Z,7.33
2019-03-20T08:25:38.023Z,9.67
2019-03-20T08:28:07.634Z,8.70
2019-03-20T08:30:37.259Z,8.47
2019-03-20T08:33:06.829Z,7.83
2019-03-20T08:35:36.383Z,7.67
2019-03-20T08:38:06.043Z,9.30
2019-03-20T08:40:35.691Z,7.97
2019-03-20T08:43:05.425Z,9.80
2019-03-20T08:45:35.000Z,8.70
2019-03-20T08:48:04.977Z,9.97
2019-03-20T08:50:34.606Z,8.27
2019-03-20T08:53:04.171Z,8.80
2019-03-20T08:55:33.732Z,9.70
2019-03-20T08:58:03.315Z,10.63
2019-03-20T09:00:32.925Z,9.43
2019-03-20T09:03:02.523Z,9.60
2019-03-20T09:05:32.215Z,8.73
2019-03-20T09:08:01.819Z,10.27
2019-03-20T09:10:31.450Z,13.10
2019-03-20T09:13:01.030Z,11.53
2019-03-20T09:15:30.645Z,10.77
2019-03-20T09:18:00.230Z,13.73
2019-03-20T09:20:29.787Z,11.90
2019-03-20T09:22:59.463Z,12.57
2019-03-20T09:25:29.052Z,15.13
2019-03-20T09:27:58.701Z,13.60
2019-03-20T09:30:28.256Z,9.87
2019-03-20T09:32:57.883Z,12.03
2019-03-20T09:35:27.486Z,10.47
2019-03-20T09:37:57.091Z,11.77
2019-03-20T09:40:26.750Z,13.50
2019-03-20T09:42:56.338Z,11.60
2019-03-20T09:45:26.066Z,12.77
2019-03-20T09:47:55.690Z,12.23
2019-03-20T09:50:25.277Z,10.30
2019-03-20T09:52:54.970Z,9.67
2019-03-20T09:55:24.613Z,13.23
2019-03-20T09:57:54.188Z,11.73
2019-03-20T10:00:24.307Z,8.97
2019-03-20T10:02:53.985Z,12.13
2019-03-20T10:05:23.801Z,10.03
2019-03-20T10:07:53.401Z,9.77
2019-03-20T10:10:23.264Z,8.10
2019-03-20T10:12:52.947Z,7.33
2019-03-20T10:15:22.565Z,9.97
2019-03-20T10:17:52.148Z,9.77
2019-03-20T10:20:21.965Z,10.23
2019-03-20T10:22:51.770Z,9.93
2019-03-20T10:25:21.391Z,9.37
2019-03-20T10:27:52.087Z,9.10
2019-03-20T10:30:22.501Z,8.63
2019-03-20T10:32:52.138Z,7.40
2019-03-20T10:35:22.044Z,10.73
2019-03-20T10:37:51.814Z,11.00
2019-03-20T10:40:21.955Z,9.63
2019-03-20T10:42:51.672Z,10.40
2019-03-20T10:45:21.606Z,10.13
2019-03-20T10:47:53.015Z,10.80
2019-03-20T10:50:22.703Z,9.97
2019-03-20T10:52:52.436Z,10.23
2019-03-20T10:55:22.209Z,10.47
2019-03-20T10:57:51.798Z,11.87
2019-03-20T11:00:21.925Z,9.67
2019-03-20T11:02:51.930Z,8.93
2019-03-20T11:05:21.698Z,10.80
2019-03-20T11:07:51.540Z,8.87
2019-03-20T11:10:22.610Z,8.47
2019-03-20T11:12:52.392Z,12.80
2019-03-20T11:15:22.122Z,9.67
2019-03-20T11:17:51.930Z,7.80
2019-03-20T11:20:21.906Z,9.73
2019-03-20T11:22:51.644Z,12.87
2019-03-20T11:25:21.525Z,8.00
2019-03-20T11:27:51.215Z,10.93
2019-03-20T11:30:22.442Z,13.80
2019-03-20T11:32:52.216Z,10.93
2019-03-20T11:35:22.000Z,10.07
2019-03-20T11:37:51.680Z,11.90
2019-03-20T11:40:23.611Z,9.33
2019-03-20T11:42:53.364Z,9.00
2019-03-20T11:45:23.715Z,9.30
2019-03-20T11:47:53.529Z,7.63
2019-03-20T11:50:31.843Z,9.50
2019-03-20T11:53:01.426Z,12.50
2019-03-20T11:55:31.117Z,10.03
2019-03-20T11:58:00.838Z,10.00
2019-03-20T12:00:31.000Z,8.27
2019-03-20T12:03:00.644Z,8.23
2019-03-20T12:05:30.219Z,7.93
2019-03-20T12:07:59.811Z,10.07
2019-03-20T12:10:29.433Z,9.03
2019-03-20T12:12:58.999Z,8.80
2019-03-20T12:15:28.794Z,10.90
2019-03-20T12:17:58.387Z,11.07
2019-03-20T12:20:28.079Z,9.87
2019-03-20T12:22:57.704Z,10.13
2019-03-20T12:25:28.466Z,9.27
2019-03-20T12:27:58.158Z,7.77
2019-03-20T12:30:28.705Z,9.60
2019-03-20T12:32:58.502Z,9.27
2019-03-20T12:35:29.072Z,10.30
2019-03-20T12:37:58.666Z,12.50
2019-03-20T12:40:29.318Z,11.37
2019-03-20T12:42:59.063Z,9.73
2019-03-20T12:45:30.626Z,8.97
2019-03-20T12:48:00.216Z,8.23
2019-03-20T12:50:30.025Z,8.40
2019-03-20T12:53:01.780Z,10.67
2019-03-20T12:55:31.405Z,9.20
2019-03-20T12:58:01.133Z,8.77
2019-03-20T13:00:30.832Z,8.30
2019-03-20T13:03:00.489Z,8.37
2019-03-20T13:05:30.076Z,9.53
2019-03-20T13:08:05.698Z,12.20
2019-03-20T13:10:31.143Z,9.77
2019-03-20T13:13:00.826Z,10.97
2019-03-20T13:15:30.505Z,9.90
2019-03-20T13:18:00.108Z,12.17
2019-03-20T13:20:29.713Z,10.00
2019-03-20T13:23:02.177Z,12.30
2019-03-20T13:25:32.053Z,11.20
2019-03-20T13:28:01.649Z,9.67
2019-03-20T13:30:37.039Z,9.90
2019-03-20T13:33:06.637Z,10.27
2019-03-20T13:35:36.266Z,11.23
2019-03-20T13:38:05.969Z,9.63
2019-03-20T13:40:35.642Z,9.63
2019-03-20T13:43:05.402Z,12.20
2019-03-20T13:45:35.034Z,12.93
2019-03-20T13:48:04.735Z,11.07
2019-03-20T13:50:34.401Z,9.50
2019-03-20T13:53:03.993Z,9.93
2019-03-20T13:55:33.577Z,9.50
2019-03-20T13:58:03.167Z,9.57
2019-03-20T14:00:32.762Z,9.27
2019-03-20T14:03:02.402Z,10.43
2019-03-20T14:05:31.964Z,11.00
2019-03-20T14:08:01.552Z,11.10
2019-03-20T14:10:31.170Z,9.87
2019-03-20T14:13:00.782Z,10.13
2019-03-20T14:15:30.444Z,10.03
2019-03-20T14:18:00.119Z,10.73
2019-03-20T14:20:29.724Z,10.87
2019-03-20T14:22:59.447Z,11.93
2019-03-20T14:25:29.054Z,11.60
2019-03-20T14:27:58.636Z,12.63
2019-03-20T14:30:28.316Z,11.00
2019-03-20T14:32:58.078Z,11.03
2019-03-20T14:35:27.679Z,9.93
2019-03-20T14:37:57.332Z,10.20
2019-03-20T14:40:35.250Z,10.87
2019-03-20T14:42:59.556Z,14.07
2019-03-20T14:45:29.269Z,13.37
2019-03-20T14:47:58.959Z,9.40
2019-03-20T14:50:28.710Z,13.03
2019-03-20T14:52:58.287Z,13.97
2019-03-20T14:55:27.878Z,13.00
2019-03-20T14:57:57.658Z,12.23
2019-03-20T15:00:27.283Z,9.83
2019-03-20T15:02:56.957Z,15.03
2019-03-20T15:05:26.559Z,10.73
2019-03-20T15:07:56.232Z,10.50
2019-03-20T15:10:26.004Z,12.53
2019-03-20T15:12:55.693Z,13.17
2019-03-20T15:15:37.610Z,11.73
2019-03-20T15:18:07.272Z,13.63
2019-03-20T15:20:37.179Z,16.13
2019-03-20T15:23:06.909Z,14.43
2019-03-20T15:25:36.496Z,13.00
2019-03-20T15:28:06.269Z,13.50
2019-03-20T15:30:35.896Z,11.43
2019-03-20T15:33:05.714Z,13.57
2019-03-20T15:35:35.337Z,11.53
2019-03-20T15:38:05.046Z,11.57
2019-03-20T15:40:34.625Z,12.33
2019-03-20T15:43:04.331Z,10.70
2019-03-20T15:45:33.919Z,11.67
2019-03-20T15:48:03.594Z,10.47
2019-03-20T15:50:33.178Z,11.10
2019-03-20T15:53:02.796Z,13.27
2019-03-20T15:55:32.574Z,12.00
2019-03-20T15:58:02.281Z,10.30
2019-03-20T16:00:32.017Z,12.60
2019-03-20T16:03:04.751Z,12.23
2019-03-20T16:05:34.385Z,12.77
2019-03-20T16:08:04.032Z,11.53
2019-03-20T16:10:33.592Z,11.70
2019-03-20T16:13:03.207Z,10.93
2019-03-20T16:15:32.812Z,11.50
2019-03-20T16:18:02.422Z,11.53
2019-03-20T16:20:32.079Z,10.37
2019-03-20T16:23:01.686Z,11.20
2019-03-20T16:25:31.273Z,8.90
2019-03-20T16:28:00.907Z,9.43
2019-03-20T16:30:30.516Z,14.73
2019-03-20T16:33:00.091Z,10.37
2019-03-20T16:35:29.738Z,10.70
2019-03-20T16:37:59.327Z,10.27
2019-03-20T16:40:28.915Z,11.80
2019-03-20T16:42:58.567Z,12.70
2019-03-20T16:45:29.491Z,11.83
2019-03-20T16:47:59.105Z,9.50
2019-03-20T16:50:28.709Z,8.50
2019-03-20T16:52:58.436Z,12.27
2019-03-20T16:55:28.160Z,12.50
2019-03-20T16:57:57.874Z,10.60
2019-03-20T17:00:28.322Z,12.97
2019-03-20T17:02:58.392Z,11.77
2019-03-20T17:05:28.702Z,14.60
2019-03-20T17:07:58.401Z,13.90
2019-03-20T17:10:35.867Z,12.33
2019-03-20T17:13:05.647Z,17.53
2019-03-20T17:15:35.410Z,15.30
2019-03-20T17:18:05.202Z,13.20
2019-03-20T17:20:34.785Z,16.37
2019-03-20T17:23:04.615Z,12.37
2019-03-20T17:25:34.232Z,16.03
2019-03-20T17:28:03.917Z,12.60
2019-03-20T17:30:37.392Z,15.73
2019-03-20T17:33:07.497Z,14.77
2019-03-20T17:35:37.116Z,14.13
2019-03-20T17:38:06.925Z,14.50
2019-03-20T17:40:36.531Z,16.73
2019-03-20T17:43:06.466Z,18.40
2019-03-20T17:45:36.690Z,14.00
2019-03-20T17:48:06.451Z,13.53
2019-03-20T17:50:36.110Z,16.27
2019-03-20T17:53:06.220Z,14.00
2019-03-20T17:55:35.941Z,16.10
2019-03-20T17:58:06.067Z,14.57
2019-03-20T18:00:40.540Z,13.47
2019-03-20T18:03:10.280Z,14.87
2019-03-20T18:05:40.362Z,14.67
2019-03-20T18:08:10.235Z,14.10
2019-03-20T18:10:39.832Z,14.33
2019-03-20T18:13:09.731Z,12.57
2019-03-20T18:15:39.383Z,12.93
2019-03-20T18:18:09.115Z,12.33
2019-03-20T18:20:39.013Z,12.67
2019-03-20T18:23:09.158Z,12.40
2019-03-20T18:25:38.757Z,14.03
2019-03-20T18:28:08.557Z,13.10
2019-03-20T18:30:38.445Z,12.30
2019-03-20T18:33:08.172Z,10.80
2019-03-20T18:35:37.783Z,17.80
2019-03-20T18:38:08.614Z,13.23
2019-03-20T18:40:38.261Z,14.97
2019-03-20T18:43:07.965Z,14.83
2019-03-20T18:45:37.598Z,15.13
2019-03-20T18:48:07.351Z,14.00
2019-03-20T18:50:36.982Z,14.10
2019-03-20T18:53:06.859Z,15.10
2019-03-20T18:55:37.611Z,12.53
2019-03-20T18:58:07.214Z,10.43
2019-03-20T19:00:36.832Z,10.93
2019-03-20T19:03:07.133Z,14.33
2019-03-20T19:05:41.712Z,14.67
2019-03-20T19:08:16.545Z,13.03
2019-03-20T19:10:46.172Z,13.90
2019-03-20T19:13:15.852Z,13.63
2019-03-20T19:16:07.624Z,13.93
2019-03-20T19:18:37.228Z,13.07
2019-03-20T19:21:06.819Z,11.57
2019-03-20T19:23:36.430Z,13.23
2019-03-20T19:26:06.597Z,13.77
2019-03-20T19:28:50.835Z,12.33
2019-03-20T19:31:20.429Z,12.30
2019-03-20T19:33:50.081Z,12.03
2019-03-20T19:36:19.746Z,11.13
2019-03-20T19:38:49.331Z,11.13
2019-03-20T19:41:18.955Z,9.70
2019-03-20T19:43:48.559Z,10.23
2019-03-20T19:46:18.148Z,9.13
2019-03-20T19:48:47.822Z,10.30
2019-03-20T19:51:17.446Z,9.53
2019-03-20T19:53:47.052Z,10.27
2019-03-20T19:56:16.690Z,13.03
2019-03-20T19:58:46.320Z,11.00
2019-03-20T20:01:16.085Z,13.03
2019-03-20T20:03:45.708Z,12.93
2019-03-20T20:06:15.322Z,14.90
2019-03-20T20:08:44.905Z,13.50
2019-03-20T20:11:14.518Z,11.60
2019-03-20T20:13:44.162Z,11.03
2019-03-20T20:16:13.786Z,14.90
2019-03-20T20:18:43.386Z,11.37
2019-03-20T20:21:12.967Z,11.37
2019-03-20T20:23:42.627Z,10.10
2019-03-20T20:26:12.332Z,11.40
2019-03-20T20:28:41.925Z,10.87
2019-03-20T20:31:11.561Z,8.50
2019-03-20T20:33:41.189Z,11.73
2019-03-20T20:36:10.774Z,11.73
2019-03-20T20:38:40.430Z,10.73
2019-03-20T20:41:10.039Z,8.17
2019-03-20T20:43:40.002Z,7.93
2019-03-20T20:46:09.793Z,8.83
2019-03-20T20:48:39.368Z,7.77
2019-03-20T20:51:08.976Z,8.57
2019-03-20T20:53:38.570Z,8.67
2019-03-20T20:56:08.282Z,11.03
2019-03-20T20:58:37.892Z,10.57
2019-03-20T21:01:08.060Z,10.27
2019-03-20T21:03:37.718Z,10.40
2019-03-20T21:06:07.321Z,9.10
2019-03-20T21:08:39.608Z,10.37
2019-03-20T21:11:09.226Z,12.13
2019-03-20T21:13:38.843Z,12.33
2019-03-20T21:16:08.992Z,10.10
2019-03-20T21:19:17.134Z,11.07
2019-03-20T21:22:24.658Z,8.67
2019-03-20T21:24:54.838Z,11.20
2019-03-20T21:28:02.955Z,11.20
2019-03-20T21:31:22.364Z,9.60
2019-03-20T21:34:35.783Z,11.87
2019-03-20T21:37:41.067Z,10.13
2019-03-20T21:40:12.563Z,8.40
2019-03-20T21:43:18.339Z,10.20
2019-03-20T21:46:40.180Z,11.90
2019-03-20T21:49:10.363Z,9.87
2019-03-20T21:51:40.497Z,7.37
2019-03-20T21:54:53.004Z,10.00
2019-03-20T21:57:52.451Z,12.03
2019-03-20T22:00:58.576Z,7.00
2019-03-20T22:03:28.800Z,7.80
2019-03-20T22:06:51.396Z,10.63
2019-03-20T22:09:42.529Z,8.10
2019-03-20T22:12:59.113Z,10.53
2019-03-20T22:15:49.992Z,9.03
2019-03-20T22:18:58.994Z,8.97
2019-03-20T22:21:40.670Z,9.67
2019-03-20T22:25:09.348Z,8.87
2019-03-20T22:27:57.982Z,9.60
2019-03-20T22:30:28.142Z,8.17
2019-03-20T22:33:43.550Z,7.70
2019-03-20T22:36:20.762Z,9.97
2019-03-20T22:39:42.193Z,12.27
2019-03-20T22:42:42.115Z,8.93
2019-03-20T22:45:43.064Z,11.10
2019-03-20T22:48:42.242Z,12.80
2019-03-20T22:51:46.904Z,10.00
2019-03-20T22:55:00.861Z,8.17
2019-03-20T22:58:06.342Z,8.97
2019-03-20T23:00:36.597Z,10.43
2019-03-20T23:03:17.520Z,9.97
2019-03-20T23:05:47.595Z,8.80
2019-03-20T23:08:18.015Z,9.50
2019-03-20T23:10:50.134Z,9.37
2019-03-20T23:13:21.264Z,10.77
2019-03-20T23:15:51.748Z,12.07
2019-03-20T23:18:22.047Z,13.27
2019-03-20T23:20:52.247Z,10.67
2019-03-20T23:23:22.436Z,11.30
2019-03-20T23:25:52.632Z,11.97
2019-03-20T23:28:23.425Z,10.33
2019-03-20T23:30:53.637Z,11.47
2019-03-20T23:33:23.800Z,8.37
2019-03-20T23:35:53.998Z,8.40
2019-03-20T23:38:24.130Z,9.03
2019-03-20T23:40:54.329Z,9.67
2019-03-20T23:43:24.443Z,10.70
2019-03-20T23:45:54.567Z,8.47
2019-03-20T23:48:37.926Z,12.77
2019-03-20T23:51:11.345Z,9.97
2019-03-20T23:53:45.238Z,8.30
2019-03-20T23:56:15.402Z,13.20
2019-03-20T23:58:45.631Z,11.77
